Taylor, Michigan
Current Conditions -  °F | °C
As of 10:53 AM on Friday 24 Oct 2014 (Local Time) from KDTW Reporting Station
Scattered Clouds Scattered Clouds  
Wind Chill: 52°   Ceiling: Unl
Heat Index: 52°   Visibility: 8mi
Dew Point: 42°   Wind: 5mph
Humidity: 69%   Direction: 190°S
Pressure: 30.08"   Gusts: NA
Location:  42.23°N, 83.26°W
Report Text: KDTW 241453Z 19004KT 8SM FEW095 SCT220 11/06 A3008 RMK AO2 SLP190 T01110056 58001
Loading
Personal Weather Stations






























Interactive Weather Map
Tropical Storm Tracking
New forecast layout! Learn more

10-Day Weather Forecast

Advertisements
Track Severe Weather on mobile